sensor_id;sensor_type;location;lat;lon;timestamp;temperature;humidity
72202;SHT30;60105;54.956;73.412;2023-04-24T00:01:30;10.02;73.38
72202;SHT30;60105;54.956;73.412;2023-04-24T00:04:32;9.99;73.43
72202;SHT30;60105;54.956;73.412;2023-04-24T00:07:34;9.93;73.64
72202;SHT30;60105;54.956;73.412;2023-04-24T00:10:35;9.99;73.44
72202;SHT30;60105;54.956;73.412;2023-04-24T00:13:37;9.99;73.39
72202;SHT30;60105;54.956;73.412;2023-04-24T00:16:39;10.03;73.24
72202;SHT30;60105;54.956;73.412;2023-04-24T00:19:40;9.99;73.06
72202;SHT30;60105;54.956;73.412;2023-04-24T00:22:41;9.96;73.45
72202;SHT30;60105;54.956;73.412;2023-04-24T00:25:43;9.97;73.36
72202;SHT30;60105;54.956;73.412;2023-04-24T00:28:44;9.97;73.46
72202;SHT30;60105;54.956;73.412;2023-04-24T00:32:26;9.99;73.54
72202;SHT30;60105;54.956;73.412;2023-04-24T00:35:27;9.93;73.50
72202;SHT30;60105;54.956;73.412;2023-04-24T00:38:30;9.94;73.69
72202;SHT30;60105;54.956;73.412;2023-04-24T00:41:32;10.02;73.68
72202;SHT30;60105;54.956;73.412;2023-04-24T00:44:33;10.06;73.32
72202;SHT30;60105;54.956;73.412;2023-04-24T00:47:41;10.10;73.76
72202;SHT30;60105;54.956;73.412;2023-04-24T00:50:52;10.07;73.33
72202;SHT30;60105;54.956;73.412;2023-04-24T00:53:54;10.14;73.25
72202;SHT30;60105;54.956;73.412;2023-04-24T00:57:26;10.24;73.20
72202;SHT30;60105;54.956;73.412;2023-04-24T01:00:32;10.24;73.12
72202;SHT30;60105;54.956;73.412;2023-04-24T01:03:33;10.36;72.53
72202;SHT30;60105;54.956;73.412;2023-04-24T01:07:27;10.30;73.20
72202;SHT30;60105;54.956;73.412;2023-04-24T01:10:34;10.30;72.98
72202;SHT30;60105;54.956;73.412;2023-04-24T01:13:37;10.21;73.32
72202;SHT30;60105;54.956;73.412;2023-04-24T01:16:39;10.18;73.41
72202;SHT30;60105;54.956;73.412;2023-04-24T01:19:40;10.03;73.87
72202;SHT30;60105;54.956;73.412;2023-04-24T01:22:42;10.03;74.20
72202;SHT30;60105;54.956;73.412;2023-04-24T01:25:44;9.96;74.15
72202;SHT30;60105;54.956;73.412;2023-04-24T01:28:56;9.89;74.50
72202;SHT30;60105;54.956;73.412;2023-04-24T01:32:26;9.87;74.24
72202;SHT30;60105;54.956;73.412;2023-04-24T01:35:27;9.79;74.54
72202;SHT30;60105;54.956;73.412;2023-04-24T01:38:39;9.82;74.39
72202;SHT30;60105;54.956;73.412;2023-04-24T01:41:40;9.73;74.57
72202;SHT30;60105;54.956;73.412;2023-04-24T01:44:41;9.79;74.41
72202;SHT30;60105;54.956;73.412;2023-04-24T01:47:43;9.81;74.31
72202;SHT30;60105;54.956;73.412;2023-04-24T01:50:46;9.76;74.57
72202;SHT30;60105;54.956;73.412;2023-04-24T01:53:47;9.79;74.72
72202;SHT30;60105;54.956;73.412;2023-04-24T01:57:26;9.79;74.61
72202;SHT30;60105;54.956;73.412;2023-04-24T02:00:38;9.82;74.74
72202;SHT30;60105;54.956;73.412;2023-04-24T02:03:39;9.81;74.92
72202;SHT30;60105;54.956;73.412;2023-04-24T02:07:26;9.86;74.77
72202;SHT30;60105;54.956;73.412;2023-04-24T02:10:27;9.82;75.09
72202;SHT30;60105;54.956;73.412;2023-04-24T02:13:29;9.96;75.02
72202;SHT30;60105;54.956;73.412;2023-04-24T02:16:30;10.07;74.87
72202;SHT30;60105;54.956;73.412;2023-04-24T02:19:36;10.17;75.02
72202;SHT30;60105;54.956;73.412;2023-04-24T02:22:38;10.31;74.69
72202;SHT30;60105;54.956;73.412;2023-04-24T02:25:39;10.38;74.44
72202;SHT30;60105;54.956;73.412;2023-04-24T02:28:51;10.31;74.89
72202;SHT30;60105;54.956;73.412;2023-04-24T02:32:26;10.34;75.14
72202;SHT30;60105;54.956;73.412;2023-04-24T02:35:28;10.40;74.96
72202;SHT30;60105;54.956;73.412;2023-04-24T02:38:33;10.40;75.03
72202;SHT30;60105;54.956;73.412;2023-04-24T02:41:35;10.51;74.81
72202;SHT30;60105;54.956;73.412;2023-04-24T02:44:36;10.48;74.99
72202;SHT30;60105;54.956;73.412;2023-04-24T02:47:48;10.55;74.80
72202;SHT30;60105;54.956;73.412;2023-04-24T02:50:49;10.51;75.24
72202;SHT30;60105;54.956;73.412;2023-04-24T02:53:51;10.55;75.31
72202;SHT30;60105;54.956;73.412;2023-04-24T02:57:26;10.47;75.70
72202;SHT30;60105;54.956;73.412;2023-04-24T03:00:27;10.54;75.78
72202;SHT30;60105;54.956;73.412;2023-04-24T03:03:29;10.75;75.33
72202;SHT30;60105;54.956;73.412;2023-04-24T03:06:30;11.02;74.70
72202;SHT30;60105;54.956;73.412;2023-04-24T03:09:34;11.22;74.07
72202;SHT30;60105;54.956;73.412;2023-04-24T03:12:45;11.37;73.44
72202;SHT30;60105;54.956;73.412;2023-04-24T03:15:48;11.24;73.28
72202;SHT30;60105;54.956;73.412;2023-04-24T03:18:49;11.13;73.53
72202;SHT30;60105;54.956;73.412;2023-04-24T03:22:26;11.05;73.62
72202;SHT30;60105;54.956;73.412;2023-04-24T03:25:27;10.93;74.06
72202;SHT30;60105;54.956;73.412;2023-04-24T03:28:29;10.85;74.53
72202;SHT30;60105;54.956;73.412;2023-04-24T03:32:26;10.83;74.55
72202;SHT30;60105;54.956;73.412;2023-04-24T03:35:27;10.83;74.46
72202;SHT30;60105;54.956;73.412;2023-04-24T03:38:30;10.79;74.62
72202;SHT30;60105;54.956;73.412;2023-04-24T03:41:38;10.85;74.85
72202;SHT30;60105;54.956;73.412;2023-04-24T03:44:50;10.89;74.61
72202;SHT30;60105;54.956;73.412;2023-04-24T03:47:57;10.78;74.91
72202;SHT30;60105;54.956;73.412;2023-04-24T03:50:59;10.64;75.58
72202;SHT30;60105;54.956;73.412;2023-04-24T03:54:00;10.62;75.60
72202;SHT30;60105;54.956;73.412;2023-04-24T03:57:26;10.52;75.66
72202;SHT30;60105;54.956;73.412;2023-04-24T04:00:40;10.51;75.84
72202;SHT30;60105;54.956;73.412;2023-04-24T04:04:07;10.52;75.84
72202;SHT30;60105;54.956;73.412;2023-04-24T04:07:26;10.57;75.79
72202;SHT30;60105;54.956;73.412;2023-04-24T04:10:27;10.64;75.41
72202;SHT30;60105;54.956;73.412;2023-04-24T04:13:29;10.51;75.79
72202;SHT30;60105;54.956;73.412;2023-04-24T04:16:31;10.45;76.19
72202;SHT30;60105;54.956;73.412;2023-04-24T04:19:37;10.41;76.77
72202;SHT30;60105;54.956;73.412;2023-04-24T04:22:39;10.54;76.59
72202;SHT30;60105;54.956;73.412;2023-04-24T04:25:43;10.62;76.45
72202;SHT30;60105;54.956;73.412;2023-04-24T04:28:51;10.64;76.60
72202;SHT30;60105;54.956;73.412;2023-04-24T04:32:26;10.68;76.54
72202;SHT30;60105;54.956;73.412;2023-04-24T04:35:33;10.61;76.79
72202;SHT30;60105;54.956;73.412;2023-04-24T04:38:35;10.69;76.59
72202;SHT30;60105;54.956;73.412;2023-04-24T04:41:54;10.67;76.39
72202;SHT30;60105;54.956;73.412;2023-04-24T04:45:00;10.73;75.97
72202;SHT30;60105;54.956;73.412;2023-04-24T04:48:18;10.79;75.84
72202;SHT30;60105;54.956;73.412;2023-04-24T04:51:20;10.98;74.79
72202;SHT30;60105;54.956;73.412;2023-04-24T04:54:22;10.99;74.53
72202;SHT30;60105;54.956;73.412;2023-04-24T04:57:33;11.13;73.40
72202;SHT30;60105;54.956;73.412;2023-04-24T05:00:41;11.22;72.94
72202;SHT30;60105;54.956;73.412;2023-04-24T05:04:01;11.44;72.63
72202;SHT30;60105;54.956;73.412;2023-04-24T05:07:26;11.47;72.23
72202;SHT30;60105;54.956;73.412;2023-04-24T05:10:29;11.46;72.29
72202;SHT30;60105;54.956;73.412;2023-04-24T05:13:40;11.24;73.03
72202;SHT30;60105;54.956;73.412;2023-04-24T05:17:27;11.08;73.81
72202;SHT30;60105;54.956;73.412;2023-04-24T05:20:32;11.06;73.75
72202;SHT30;60105;54.956;73.412;2023-04-24T05:23:33;11.10;73.37
72202;SHT30;60105;54.956;73.412;2023-04-24T05:27:26;11.24;72.08
72202;SHT30;60105;54.956;73.412;2023-04-24T05:30:28;11.31;71.18
72202;SHT30;60105;54.956;73.412;2023-04-24T05:33:29;11.43;70.37
72202;SHT30;60105;54.956;73.412;2023-04-24T05:36:41;11.44;69.99
72202;SHT30;60105;54.956;73.412;2023-04-24T05:39:46;11.53;69.22
72202;SHT30;60105;54.956;73.412;2023-04-24T05:42:48;11.70;69.13
72202;SHT30;60105;54.956;73.412;2023-04-24T05:45:49;11.90;67.86
72202;SHT30;60105;54.956;73.412;2023-04-24T05:48:52;12.11;66.96
72202;SHT30;60105;54.956;73.412;2023-04-24T05:52:26;12.39;66.36
72202;SHT30;60105;54.956;73.412;2023-04-24T05:55:28;12.52;64.89
72202;SHT30;60105;54.956;73.412;2023-04-24T05:58:29;12.56;64.29
72202;SHT30;60105;54.956;73.412;2023-04-24T06:01:30;12.70;63.44
72202;SHT30;60105;54.956;73.412;2023-04-24T06:04:41;12.86;63.10
72202;SHT30;60105;54.956;73.412;2023-04-24T06:07:42;12.91;63.07
72202;SHT30;60105;54.956;73.412;2023-04-24T06:10:49;12.84;63.45
72202;SHT30;60105;54.956;73.412;2023-04-24T06:13:53;13.06;63.03
72202;SHT30;60105;54.956;73.412;2023-04-24T06:17:30;13.19;63.06
72202;SHT30;60105;54.956;73.412;2023-04-24T06:20:35;13.15;63.42
72202;SHT30;60105;54.956;73.412;2023-04-24T06:23:36;13.17;62.77
72202;SHT30;60105;54.956;73.412;2023-04-24T06:26:38;13.11;62.16
72202;SHT30;60105;54.956;73.412;2023-04-24T06:29:41;12.97;59.95
72202;SHT30;60105;54.956;73.412;2023-04-24T06:32:43;13.10;59.50
72202;SHT30;60105;54.956;73.412;2023-04-24T06:35:46;13.17;59.21
72202;SHT30;60105;54.956;73.412;2023-04-24T06:38:47;13.36;59.00
72202;SHT30;60105;54.956;73.412;2023-04-24T06:41:54;13.35;59.51
72202;SHT30;60105;54.956;73.412;2023-04-24T06:44:59;13.63;58.91
72202;SHT30;60105;54.956;73.412;2023-04-24T06:48:00;13.95;58.59
72202;SHT30;60105;54.956;73.412;2023-04-24T06:51:01;14.06;58.59
72202;SHT30;60105;54.956;73.412;2023-04-24T06:54:03;13.85;57.81
72202;SHT30;60105;54.956;73.412;2023-04-24T06:57:26;13.91;56.40
72202;SHT30;60105;54.956;73.412;2023-04-24T07:00:32;13.90;56.52
72202;SHT30;60105;54.956;73.412;2023-04-24T07:03:33;13.87;57.11
72202;SHT30;60105;54.956;73.412;2023-04-24T07:06:35;13.86;56.85
72202;SHT30;60105;54.956;73.412;2023-04-24T07:09:37;14.00;55.86
72202;SHT30;60105;54.956;73.412;2023-04-24T07:12:39;14.06;55.62
72202;SHT30;60105;54.956;73.412;2023-04-24T07:15:41;13.86;56.18
72202;SHT30;60105;54.956;73.412;2023-04-24T07:18:42;13.95;56.33
72202;SHT30;60105;54.956;73.412;2023-04-24T07:22:26;13.89;56.20
72202;SHT30;60105;54.956;73.412;2023-04-24T07:25:27;13.93;54.33
72202;SHT30;60105;54.956;73.412;2023-04-24T07:28:29;14.10;53.50
72202;SHT30;60105;54.956;73.412;2023-04-24T07:31:32;14.21;53.64
72202;SHT30;60105;54.956;73.412;2023-04-24T07:34:35;14.28;53.90
72202;SHT30;60105;54.956;73.412;2023-04-24T07:37:41;14.09;55.28
72202;SHT30;60105;54.956;73.412;2023-04-24T07:40:47;13.77;55.44
72202;SHT30;60105;54.956;73.412;2023-04-24T07:43:48;13.46;56.27
72202;SHT30;60105;54.956;73.412;2023-04-24T07:47:26;13.46;56.40
72202;SHT30;60105;54.956;73.412;2023-04-24T07:50:27;13.48;56.69
72202;SHT30;60105;54.956;73.412;2023-04-24T07:53:29;13.39;57.42
72202;SHT30;60105;54.956;73.412;2023-04-24T07:56:30;13.17;58.68
72202;SHT30;60105;54.956;73.412;2023-04-24T07:59:32;12.98;59.70
72202;SHT30;60105;54.956;73.412;2023-04-24T08:02:33;12.61;60.96
72202;SHT30;60105;54.956;73.412;2023-04-24T08:05:44;12.55;61.73
72202;SHT30;60105;54.956;73.412;2023-04-24T08:08:45;12.56;61.92
72202;SHT30;60105;54.956;73.412;2023-04-24T08:11:55;12.49;62.31
72202;SHT30;60105;54.956;73.412;2023-04-24T08:14:56;12.38;62.42
72202;SHT30;60105;54.956;73.412;2023-04-24T08:17:58;12.22;62.35
72202;SHT30;60105;54.956;73.412;2023-04-24T08:20:59;11.98;62.97
72202;SHT30;60105;54.956;73.412;2023-04-24T08:24:07;11.78;63.66
72202;SHT30;60105;54.956;73.412;2023-04-24T08:27:26;11.78;63.68
72202;SHT30;60105;54.956;73.412;2023-04-24T08:30:28;11.68;63.92
72202;SHT30;60105;54.956;73.412;2023-04-24T08:33:29;11.49;64.76
72202;SHT30;60105;54.956;73.412;2023-04-24T08:37:27;11.43;65.59
72202;SHT30;60105;54.956;73.412;2023-04-24T08:40:29;11.36;65.76
72202;SHT30;60105;54.956;73.412;2023-04-24T08:43:36;11.27;65.91
72202;SHT30;60105;54.956;73.412;2023-04-24T08:46:40;11.31;65.47
72202;SHT30;60105;54.956;73.412;2023-04-24T08:49:42;11.26;65.25
72202;SHT30;60105;54.956;73.412;2023-04-24T08:52:44;11.16;65.58
72202;SHT30;60105;54.956;73.412;2023-04-24T08:55:56;11.01;66.36
72202;SHT30;60105;54.956;73.412;2023-04-24T08:58:57;11.06;65.67
72202;SHT30;60105;54.956;73.412;2023-04-24T09:02:26;11.18;61.81
72202;SHT30;60105;54.956;73.412;2023-04-24T09:05:37;11.50;61.14
72202;SHT30;60105;54.956;73.412;2023-04-24T09:08:40;11.81;60.56
72202;SHT30;60105;54.956;73.412;2023-04-24T09:11:54;11.97;59.06
72202;SHT30;60105;54.956;73.412;2023-04-24T09:15:08;11.90;58.46
72202;SHT30;60105;54.956;73.412;2023-04-24T09:18:14;11.94;57.60
72202;SHT30;60105;54.956;73.412;2023-04-24T09:21:16;11.99;56.31
72202;SHT30;60105;54.956;73.412;2023-04-24T09:24:19;12.42;55.46
72202;SHT30;60105;54.956;73.412;2023-04-24T09:27:28;12.56;55.18
72202;SHT30;60105;54.956;73.412;2023-04-24T09:30:30;12.52;53.34
72202;SHT30;60105;54.956;73.412;2023-04-24T09:33:33;12.36;51.97
72202;SHT30;60105;54.956;73.412;2023-04-24T09:36:39;12.32;51.99
72202;SHT30;60105;54.956;73.412;2023-04-24T09:40:18;12.24;51.70
72202;SHT30;60105;54.956;73.412;2023-04-24T09:43:21;12.08;51.04
72202;SHT30;60105;54.956;73.412;2023-04-24T09:46:30;11.97;49.44
72202;SHT30;60105;54.956;73.412;2023-04-24T09:49:32;12.12;47.50
72202;SHT30;60105;54.956;73.412;2023-04-24T09:52:56;12.38;45.27
72202;SHT30;60105;54.956;73.412;2023-04-24T09:56:18;12.46;44.20
72202;SHT30;60105;54.956;73.412;2023-04-24T09:59:21;12.46;44.60
72202;SHT30;60105;54.956;73.412;2023-04-24T10:02:31;12.53;43.98
72202;SHT30;60105;54.956;73.412;2023-04-24T10:05:46;12.76;43.53
72202;SHT30;60105;54.956;73.412;2023-04-24T10:08:48;12.80;41.26
72202;SHT30;60105;54.956;73.412;2023-04-24T10:11:54;12.84;40.87
72202;SHT30;60105;54.956;73.412;2023-04-24T10:14:56;13.04;39.90
72202;SHT30;60105;54.956;73.412;2023-04-24T10:17:59;13.07;38.53
72202;SHT30;60105;54.956;73.412;2023-04-24T10:21:01;13.17;37.59
72202;SHT30;60105;54.956;73.412;2023-04-24T10:24:02;13.18;35.35
72202;SHT30;60105;54.956;73.412;2023-04-24T10:27:26;13.18;36.28
72202;SHT30;60105;54.956;73.412;2023-04-24T10:30:30;13.41;35.19
72202;SHT30;60105;54.956;73.412;2023-04-24T10:33:39;13.45;32.22
72202;SHT30;60105;54.956;73.412;2023-04-24T10:37:26;13.49;28.08
72202;SHT30;60105;54.956;73.412;2023-04-24T10:40:35;13.41;26.10
72202;SHT30;60105;54.956;73.412;2023-04-24T10:43:39;13.32;26.27
72202;SHT30;60105;54.956;73.412;2023-04-24T10:46:46;13.27;27.39
72202;SHT30;60105;54.956;73.412;2023-04-24T10:49:51;13.12;29.03
72202;SHT30;60105;54.956;73.412;2023-04-24T10:52:53;13.08;29.75
72202;SHT30;60105;54.956;73.412;2023-04-24T10:56:07;13.11;30.88
72202;SHT30;60105;54.956;73.412;2023-04-24T10:59:08;13.08;30.73
72202;SHT30;60105;54.956;73.412;2023-04-24T11:02:35;13.28;30.85
72202;SHT30;60105;54.956;73.412;2023-04-24T11:06:09;13.31;31.29
72202;SHT30;60105;54.956;73.412;2023-04-24T11:09:14;13.34;31.45
72202;SHT30;60105;54.956;73.412;2023-04-24T11:12:17;13.49;31.20
72202;SHT30;60105;54.956;73.412;2023-04-24T11:15:24;13.45;31.18
72202;SHT30;60105;54.956;73.412;2023-04-24T11:18:39;13.44;30.29
72202;SHT30;60105;54.956;73.412;2023-04-24T11:22:28;13.41;29.88
72202;SHT30;60105;54.956;73.412;2023-04-24T11:25:31;13.51;29.69
72202;SHT30;60105;54.956;73.412;2023-04-24T11:28:33;13.56;29.04
72202;SHT30;60105;54.956;73.412;2023-04-24T11:31:40;13.38;29.67
72202;SHT30;60105;54.956;73.412;2023-04-24T11:34:54;13.38;27.13
72202;SHT30;60105;54.956;73.412;2023-04-24T11:37:57;13.17;26.46
72202;SHT30;60105;54.956;73.412;2023-04-24T11:40:59;13.07;24.84
72202;SHT30;60105;54.956;73.412;2023-04-24T11:44:11;13.03;23.66
72202;SHT30;60105;54.956;73.412;2023-04-24T11:47:32;12.97;23.98
72202;SHT30;60105;54.956;73.412;2023-04-24T11:50:34;13.07;24.46
72202;SHT30;60105;54.956;73.412;2023-04-24T11:53:36;13.12;24.96
72202;SHT30;60105;54.956;73.412;2023-04-24T11:57:26;13.00;25.61
72202;SHT30;60105;54.956;73.412;2023-04-24T12:00:39;12.86;25.58
72202;SHT30;60105;54.956;73.412;2023-04-24T12:03:41;12.88;25.46
72202;SHT30;60105;54.956;73.412;2023-04-24T12:07:26;12.90;25.74
72202;SHT30;60105;54.956;73.412;2023-04-24T12:10:29;12.83;25.55
72202;SHT30;60105;54.956;73.412;2023-04-24T12:13:30;12.77;25.94
72202;SHT30;60105;54.956;73.412;2023-04-24T12:16:32;12.70;26.41
72202;SHT30;60105;54.956;73.412;2023-04-24T12:19:47;12.75;27.12
72202;SHT30;60105;54.956;73.412;2023-04-24T12:22:54;12.72;26.97
72202;SHT30;60105;54.956;73.412;2023-04-24T12:26:00;12.61;26.75
72202;SHT30;60105;54.956;73.412;2023-04-24T12:29:03;12.55;26.94
72202;SHT30;60105;54.956;73.412;2023-04-24T12:32:26;12.52;26.44
72202;SHT30;60105;54.956;73.412;2023-04-24T12:35:29;12.49;25.77
72202;SHT30;60105;54.956;73.412;2023-04-24T12:38:31;12.45;25.79
72202;SHT30;60105;54.956;73.412;2023-04-24T12:41:32;12.32;25.38
72202;SHT30;60105;54.956;73.412;2023-04-24T12:44:34;12.22;25.26
72202;SHT30;60105;54.956;73.412;2023-04-24T12:47:35;12.12;25.80
72202;SHT30;60105;54.956;73.412;2023-04-24T12:50:43;11.94;25.00
72202;SHT30;60105;54.956;73.412;2023-04-24T12:53:44;11.91;25.25
72202;SHT30;60105;54.956;73.412;2023-04-24T12:57:28;11.84;24.79
72202;SHT30;60105;54.956;73.412;2023-04-24T13:00:29;11.68;24.97
72202;SHT30;60105;54.956;73.412;2023-04-24T13:03:31;11.59;25.30
72202;SHT30;60105;54.956;73.412;2023-04-24T13:06:32;11.56;25.18
72202;SHT30;60105;54.956;73.412;2023-04-24T13:09:34;11.31;25.42
72202;SHT30;60105;54.956;73.412;2023-04-24T13:12:36;11.22;25.28
72202;SHT30;60105;54.956;73.412;2023-04-24T13:15:38;11.12;25.33
72202;SHT30;60105;54.956;73.412;2023-04-24T13:18:39;11.03;24.87
72202;SHT30;60105;54.956;73.412;2023-04-24T13:21:41;10.95;25.00
72202;SHT30;60105;54.956;73.412;2023-04-24T13:24:52;10.82;25.09
72202;SHT30;60105;54.956;73.412;2023-04-24T13:27:53;10.69;25.33
72202;SHT30;60105;54.956;73.412;2023-04-24T13:30:56;10.51;25.66
72202;SHT30;60105;54.956;73.412;2023-04-24T13:33:57;10.48;25.74
72202;SHT30;60105;54.956;73.412;2023-04-24T13:37:26;10.33;26.29
72202;SHT30;60105;54.956;73.412;2023-04-24T13:40:33;10.24;26.25
72202;SHT30;60105;54.956;73.412;2023-04-24T13:43:34;10.14;26.61
72202;SHT30;60105;54.956;73.412;2023-04-24T13:46:35;10.10;26.55
72202;SHT30;60105;54.956;73.412;2023-04-24T13:49:42;10.03;27.13
72202;SHT30;60105;54.956;73.412;2023-04-24T13:52:43;9.94;26.98
72202;SHT30;60105;54.956;73.412;2023-04-24T13:55:44;9.83;27.00
72202;SHT30;60105;54.956;73.412;2023-04-24T13:58:46;9.73;27.32
72202;SHT30;60105;54.956;73.412;2023-04-24T14:02:26;9.66;28.04
72202;SHT30;60105;54.956;73.412;2023-04-24T14:05:27;9.59;28.23
72202;SHT30;60105;54.956;73.412;2023-04-24T14:08:28;9.52;28.74
72202;SHT30;60105;54.956;73.412;2023-04-24T14:11:30;9.44;29.26
72202;SHT30;60105;54.956;73.412;2023-04-24T14:14:41;9.24;29.64
72202;SHT30;60105;54.956;73.412;2023-04-24T14:17:48;9.14;29.42
72202;SHT30;60105;54.956;73.412;2023-04-24T14:20:50;9.07;29.01
72202;SHT30;60105;54.956;73.412;2023-04-24T14:23:59;8.96;28.97
72202;SHT30;60105;54.956;73.412;2023-04-24T14:27:26;8.88;29.05
72202;SHT30;60105;54.956;73.412;2023-04-24T14:30:27;8.80;29.28
72202;SHT30;60105;54.956;73.412;2023-04-24T14:33:29;8.70;29.18
72202;SHT30;60105;54.956;73.412;2023-04-24T14:36:30;8.57;28.95
72202;SHT30;60105;54.956;73.412;2023-04-24T14:39:32;8.49;29.09
72202;SHT30;60105;54.956;73.412;2023-04-24T14:42:34;8.42;28.88
72202;SHT30;60105;54.956;73.412;2023-04-24T14:45:37;8.29;29.13
72202;SHT30;60105;54.956;73.412;2023-04-24T14:48:38;8.20;29.23
72202;SHT30;60105;54.956;73.412;2023-04-24T14:51:40;8.17;29.38
72202;SHT30;60105;54.956;73.412;2023-04-24T14:54:42;8.14;29.65
72202;SHT30;60105;54.956;73.412;2023-04-24T14:57:53;8.01;29.67
72202;SHT30;60105;54.956;73.412;2023-04-24T15:00:54;7.90;30.35
72202;SHT30;60105;54.956;73.412;2023-04-24T15:03:56;7.86;30.30
72202;SHT30;60105;54.956;73.412;2023-04-24T15:07:26;7.78;30.59
72202;SHT30;60105;54.956;73.412;2023-04-24T15:10:27;7.70;31.10
72202;SHT30;60105;54.956;73.412;2023-04-24T15:13:30;7.62;30.87
72202;SHT30;60105;54.956;73.412;2023-04-24T15:16:39;7.63;30.84
72202;SHT30;60105;54.956;73.412;2023-04-24T15:19:40;7.56;30.84
72202;SHT30;60105;54.956;73.412;2023-04-24T15:22:42;7.49;30.87
72202;SHT30;60105;54.956;73.412;2023-04-24T15:25:43;7.49;30.87
72202;SHT30;60105;54.956;73.412;2023-04-24T15:28:44;7.42;31.14
72202;SHT30;60105;54.956;73.412;2023-04-24T15:32:26;7.37;30.94
72202;SHT30;60105;54.956;73.412;2023-04-24T15:35:47;7.30;30.94
72202;SHT30;60105;54.956;73.412;2023-04-24T15:38:49;7.28;31.06
72202;SHT30;60105;54.956;73.412;2023-04-24T15:41:55;7.22;31.21
72202;SHT30;60105;54.956;73.412;2023-04-24T15:44:57;7.25;31.12
72202;SHT30;60105;54.956;73.412;2023-04-24T15:47:58;7.15;31.41
72202;SHT30;60105;54.956;73.412;2023-04-24T15:51:00;7.07;31.88
72202;SHT30;60105;54.956;73.412;2023-04-24T15:54:01;7.05;32.21
72202;SHT30;60105;54.956;73.412;2023-04-24T15:57:25;7.02;33.08
72202;SHT30;60105;54.956;73.412;2023-04-24T16:00:27;6.97;32.13
72202;SHT30;60105;54.956;73.412;2023-04-24T16:03:34;6.91;32.37
72202;SHT30;60105;54.956;73.412;2023-04-24T16:06:35;6.85;32.69
72202;SHT30;60105;54.956;73.412;2023-04-24T16:09:46;6.83;32.43
72202;SHT30;60105;54.956;73.412;2023-04-24T16:12:48;6.77;32.53
72202;SHT30;60105;54.956;73.412;2023-04-24T16:15:51;6.71;32.80
72202;SHT30;60105;54.956;73.412;2023-04-24T16:18:52;6.71;33.11
72202;SHT30;60105;54.956;73.412;2023-04-24T16:22:25;6.68;33.50
72202;SHT30;60105;54.956;73.412;2023-04-24T16:25:27;6.61;33.32
72202;SHT30;60105;54.956;73.412;2023-04-24T16:28:29;6.50;33.47
72202;SHT30;60105;54.956;73.412;2023-04-24T16:31:30;6.49;33.67
72202;SHT30;60105;54.956;73.412;2023-04-24T16:34:32;6.49;33.70
72202;SHT30;60105;54.956;73.412;2023-04-24T16:37:33;6.39;33.79
72202;SHT30;60105;54.956;73.412;2023-04-24T16:40:38;6.29;34.12
72202;SHT30;60105;54.956;73.412;2023-04-24T16:43:42;6.26;34.25
72202;SHT30;60105;54.956;73.412;2023-04-24T16:47:26;6.26;34.14
72202;SHT30;60105;54.956;73.412;2023-04-24T16:50:27;6.20;34.64
72202;SHT30;60105;54.956;73.412;2023-04-24T16:53:34;6.15;34.74
72202;SHT30;60105;54.956;73.412;2023-04-24T16:56:35;6.03;34.98
72202;SHT30;60105;54.956;73.412;2023-04-24T16:59:41;5.91;35.34
72202;SHT30;60105;54.956;73.412;2023-04-24T17:02:48;5.88;36.03
72202;SHT30;60105;54.956;73.412;2023-04-24T17:05:50;5.87;35.77
72202;SHT30;60105;54.956;73.412;2023-04-24T17:08:51;5.71;36.42
72202;SHT30;60105;54.956;73.412;2023-04-24T17:11:54;5.62;36.54
72202;SHT30;60105;54.956;73.412;2023-04-24T17:14:56;5.60;36.45
72202;SHT30;60105;54.956;73.412;2023-04-24T17:17:58;5.62;36.58
72202;SHT30;60105;54.956;73.412;2023-04-24T17:20:59;5.61;36.92
72202;SHT30;60105;54.956;73.412;2023-04-24T17:24:00;5.61;37.47
72202;SHT30;60105;54.956;73.412;2023-04-24T17:27:30;5.60;37.29
72202;SHT30;60105;54.956;73.412;2023-04-24T17:30:32;5.48;37.13
72202;SHT30;60105;54.956;73.412;2023-04-24T17:33:37;5.40;37.61
72202;SHT30;60105;54.956;73.412;2023-04-24T17:36:39;5.30;37.44
72202;SHT30;60105;54.956;73.412;2023-04-24T17:39:40;5.34;37.32
72202;SHT30;60105;54.956;73.412;2023-04-24T17:42:42;5.26;37.50
72202;SHT30;60105;54.956;73.412;2023-04-24T17:45:44;5.29;37.50
72202;SHT30;60105;54.956;73.412;2023-04-24T17:48:45;5.27;37.38
72202;SHT30;60105;54.956;73.412;2023-04-24T17:52:26;5.24;37.59
72202;SHT30;60105;54.956;73.412;2023-04-24T17:55:27;5.24;37.67
72202;SHT30;60105;54.956;73.412;2023-04-24T17:58:39;5.22;37.84
72202;SHT30;60105;54.956;73.412;2023-04-24T18:01:40;5.19;37.68
72202;SHT30;60105;54.956;73.412;2023-04-24T18:04:42;5.16;37.58
72202;SHT30;60105;54.956;73.412;2023-04-24T18:07:44;5.13;37.14
72202;SHT30;60105;54.956;73.412;2023-04-24T18:10:45;5.16;36.46
72202;SHT30;60105;54.956;73.412;2023-04-24T18:13:52;5.19;36.99
72202;SHT30;60105;54.956;73.412;2023-04-24T18:17:26;5.20;36.63
72202;SHT30;60105;54.956;73.412;2023-04-24T18:20:27;5.15;37.03
72202;SHT30;60105;54.956;73.412;2023-04-24T18:23:29;5.03;36.55
72202;SHT30;60105;54.956;73.412;2023-04-24T18:26:30;5.08;36.00
72202;SHT30;60105;54.956;73.412;2023-04-24T18:29:41;5.09;37.16
72202;SHT30;60105;54.956;73.412;2023-04-24T18:32:43;5.10;35.99
72202;SHT30;60105;54.956;73.412;2023-04-24T18:35:50;5.13;36.07
72202;SHT30;60105;54.956;73.412;2023-04-24T18:38:52;5.05;36.31
72202;SHT30;60105;54.956;73.412;2023-04-24T18:42:00;5.03;36.16
72202;SHT30;60105;54.956;73.412;2023-04-24T18:45:07;5.05;36.27
72202;SHT30;60105;54.956;73.412;2023-04-24T18:48:09;4.97;36.71
72202;SHT30;60105;54.956;73.412;2023-04-24T18:51:13;4.86;36.97
72202;SHT30;60105;54.956;73.412;2023-04-24T18:54:14;4.90;36.20
72202;SHT30;60105;54.956;73.412;2023-04-24T18:57:25;4.89;36.31
72202;SHT30;60105;54.956;73.412;2023-04-24T19:00:27;4.90;36.75
72202;SHT30;60105;54.956;73.412;2023-04-24T19:03:28;4.92;36.59
72202;SHT30;60105;54.956;73.412;2023-04-24T19:06:32;4.90;36.48
72202;SHT30;60105;54.956;73.412;2023-04-24T19:09:33;4.88;36.25
72202;SHT30;60105;54.956;73.412;2023-04-24T19:12:40;4.85;36.40
72202;SHT30;60105;54.956;73.412;2023-04-24T19:15:41;4.83;37.41
72202;SHT30;60105;54.956;73.412;2023-04-24T19:18:42;4.79;36.48
72202;SHT30;60105;54.956;73.412;2023-04-24T19:22:26;4.76;36.43
72202;SHT30;60105;54.956;73.412;2023-04-24T19:25:33;4.81;36.43
72202;SHT30;60105;54.956;73.412;2023-04-24T19:28:45;4.81;36.75
72202;SHT30;60105;54.956;73.412;2023-04-24T19:32:25;4.69;36.29
72202;SHT30;60105;54.956;73.412;2023-04-24T19:35:27;4.65;36.48
72202;SHT30;60105;54.956;73.412;2023-04-24T19:38:28;4.55;39.52